»·PEaware :: N72CS KLAX-KSNA

N72CS :: KLAX-KSNA

FLIGHT INFORMATION

Flight Status: Arrived
Operator: Privately registered:
United States
More flights under this callsign
Pilot: Craig S. (32303)
Aircraft: CESSNA 172 SKYHAWK
(C172)
More flights by this aircraft type
Origin: KLAX Los Angeles Intl
United States
Destination: KSNA John Wayne-Orange Co
United States
More flights between these airports :: More routes between these airports
Route: SLI8 SLI
File this flight plan on PilotEdge
Remarks:
Altitude:
(Current/Filed)
4,000ft
Speed:
(Current/Filed)
115kts
Departed: 21-Nov-20 09:33 PM
Arrived: 21-Nov-20 10:35 PM
Distance/Time
Traveled:
31nm/1:02
Distance/Time
To Go:
Arrived

Flight Plot

Page will automatically refresh every two minutes.

Flight plan parsing failed; only flown route is shown


Map Options




Map Legend


Flown Route
Filed Route
Departure Airport
Arrival Airport
Navaid (VOR, NDB)
Fix

Horizontal Profiles

Position Reports

Time Latitude Longitude Heading Altitude Ground
Speed
21-Nov-20 21:17 33.934962 -118.386057 269 99ft 0kts
21-Nov-20 21:18 33.934962 -118.386057 269 99ft 0kts
21-Nov-20 21:19 33.934962 -118.386057 269 99ft 0kts
21-Nov-20 21:20 33.934962 -118.386057 269 99ft 0kts
21-Nov-20 21:21 33.934962 -118.386057 269 99ft 0kts
21-Nov-20 21:22 33.934962 -118.386057 269 99ft 0kts
21-Nov-20 21:23 33.934962 -118.386057 269 99ft 0kts
21-Nov-20 21:24 33.934962 -118.386057 269 99ft 0kts
21-Nov-20 21:25 33.935202 -118.385158 346 99ft 0kts
21-Nov-20 21:26 33.935211 -118.385160 348 99ft 0kts
21-Nov-20 21:27 33.936011 -118.383848 83 97ft 14kts
21-Nov-20 21:28 33.936386 -118.382836 14 96ft 0kts
21-Nov-20 21:29 33.936386 -118.382836 14 96ft 0kts
21-Nov-20 21:30 33.936386 -118.382836 14 96ft 0kts
21-Nov-20 21:31 33.937317 -118.383566 265 96ft 16kts
21-Nov-20 21:32 33.934747 -118.407211 260 832ft 83kts
21-Nov-20 21:33 33.930049 -118.435271 239 1860ft 87kts
21-Nov-20 21:34 33.907408 -118.435233 172 2817ft 88kts
21-Nov-20 21:35 33.883429 -118.430528 172 3739ft 87kts
21-Nov-20 21:36 33.857281 -118.421041 141 4111ft 112kts
21-Nov-20 21:37 33.831352 -118.397997 142 4057ft 119kts
21-Nov-20 21:38 33.804608 -118.373823 141 3976ft 119kts
21-Nov-20 21:39 33.778348 -118.349393 144 3943ft 117kts
21-Nov-20 21:40 33.751619 -118.326877 138 3942ft 116kts
21-Nov-20 21:41 33.737577 -118.314087 143 3940ft 116kts
21-Nov-20 21:43 33.737577 -118.314087 143 3940ft 116kts
21-Nov-20 21:44 33.737577 -118.314087 143 3940ft 116kts
21-Nov-20 21:45 33.737577 -118.314087 143 3940ft 116kts
21-Nov-20 21:46 33.737577 -118.314087 143 3940ft 116kts
21-Nov-20 21:47 33.737577 -118.314087 143 3940ft 116kts
21-Nov-20 21:48 33.737577 -118.314087 143 3940ft 116kts
21-Nov-20 21:49 33.737577 -118.314087 143 3940ft 116kts
21-Nov-20 21:50 33.737577 -118.314087 143 3940ft 116kts
21-Nov-20 21:51 33.737577 -118.314087 143 3940ft 116kts
21-Nov-20 21:52 33.737577 -118.314087 143 3940ft 116kts
21-Nov-20 21:53 33.737577 -118.314087 143 3940ft 116kts
21-Nov-20 21:54 33.737577 -118.314087 143 3940ft 116kts
21-Nov-20 21:55 33.737577 -118.314087 143 3940ft 116kts
21-Nov-20 21:56 33.737577 -118.314087 143 3940ft 116kts
21-Nov-20 21:57 33.737577 -118.314087 143 3940ft 116kts
21-Nov-20 21:58 33.737577 -118.314087 143 3940ft 116kts
21-Nov-20 21:59 33.737577 -118.314087 143 3940ft 116kts
21-Nov-20 21:59 33.737577 -118.314087 143 3940ft 116kts
21-Nov-20 22:01 33.737577 -118.314087 143 3940ft 116kts
21-Nov-20 22:01 33.737577 -118.314087 143 3940ft 116kts
21-Nov-20 22:03 33.737577 -118.314087 143 3940ft 116kts
21-Nov-20 22:03 33.737577 -118.314087 143 3940ft 116kts
21-Nov-20 22:04 33.733697 -118.310548 141 3936ft 116kts
21-Nov-20 22:06 33.707173 -118.279279 145 4041ft 112kts
21-Nov-20 22:06 33.697442 -118.255752 55 3991ft 118kts
21-Nov-20 22:07 33.715510 -118.222089 57 4046ft 115kts
21-Nov-20 22:08 33.732875 -118.187173 64 4091ft 119kts
21-Nov-20 22:09 33.748394 -118.149830 64 4047ft 122kts
21-Nov-20 22:10 33.763371 -118.111672 62 4040ft 121kts
21-Nov-20 22:11 33.777731 -118.072166 70 4013ft 121kts
21-Nov-20 22:12 33.792033 -118.032512 67 3999ft 121kts
21-Nov-20 22:13 33.807122 -117.993299 61 3980ft 121kts
21-Nov-20 22:14 33.823715 -117.954600 64 3967ft 121kts
21-Nov-20 22:15 33.838505 -117.917507 63 3960ft 121kts
21-Nov-20 22:16 33.854173 -117.880201 63 3954ft 121kts
21-Nov-20 22:17 33.869339 -117.840713 68 3946ft 121kts
21-Nov-20 22:18 33.884449 -117.801200 64 3942ft 121kts
21-Nov-20 22:19 33.899319 -117.761746 66 3954ft 120kts
21-Nov-20 22:20 33.914196 -117.722278 64 3943ft 121kts
21-Nov-20 22:21 33.942800 -117.699769 25 3971ft 121kts
21-Nov-20 22:22 33.957905 -117.708605 200 4207ft 110kts
21-Nov-20 22:23 33.925771 -117.708907 205 3775ft 126kts
21-Nov-20 22:24 33.896480 -117.732623 208 3544ft 108kts
21-Nov-20 22:25 33.869045 -117.746368 205 3699ft 103kts
21-Nov-20 22:26 33.840862 -117.762142 204 3784ft 108kts
21-Nov-20 22:27 33.809459 -117.782102 210 3078ft 127kts
21-Nov-20 22:28 33.779586 -117.802903 208 2258ft 105kts
21-Nov-20 22:29 33.753821 -117.818716 213 1688ft 81kts
21-Nov-20 22:30 33.737082 -117.830225 205 1336ft 62kts
21-Nov-20 22:31 33.720781 -117.839784 207 965ft 61kts
21-Nov-20 22:32 33.704984 -117.850439 205 589ft 61kts
21-Nov-20 22:33 33.689794 -117.859857 208 290ft 60kts
21-Nov-20 22:34 33.676553 -117.868294 206 60ft 28kts
21-Nov-20 22:35 33.675973 -117.869814 297 60ft 0kts
21-Nov-20 22:36 33.676636 -117.870441 213 60ft 2kts
21-Nov-20 22:37 33.676597 -117.870473 213 60ft 0kts
21-Nov-20 22:38 33.676597 -117.870473 213 60ft 0kts
21-Nov-20 22:39 33.676597 -117.870473 213 60ft 0kts

Navigation Log

Ident Type
Flight plan parsing failed, navigation log unavailable